Impacts METAR Board
IDs:

KBWI - Baltimore-Washington, MD, US

Updated at: 1300 UTC 25 Jun 2019
Potential Impact None Slight Moderate High
Time 25/01Z 25/02Z 25/03Z 25/04Z 25/05Z 25/06Z 25/07Z 25/08Z 25/09Z 25/10Z 25/11Z 25/12Z 25/13Z
Temp80 78 77 76 76 76 77 74 74 75 75 78 79
Dewpt73 73 73 73 74 73 73 73 73 73 72 72 70
Altim29.81 29.81 29.80 29.79 29.79 29.77 29.80 29.77 29.76 29.79 29.80 29.83 29.85
VIS10 10 10 10 10 10 10 7 10 6 7 10 10
CIG220 220 220 220 140 140 44 180 110 17 120 200 200
CoverBKNBKNBKNBKNBKNOVCOVCOVCOVCBKNBKNBKNBKN
FltCatVFRVFRVFRVFRVFRVFRVFRVFRVFRMVFRVFRVFRVFR
WX-------------TSRA-RA--BR------
WDir140160150130002500170210230270290
WSpd3 4 4 5 0 0 10 0 3 3 3 6 5
WGst-- -- -- -- -- -- 23 -- -- -- -- -- --
Raw hourly METARs
KBWI 250054Z 14003KT 10SM FEW110 SCT170 BKN220 27/23 A2981 RMK AO2 SLP093 T02670228
KBWI 250154Z 16004KT 10SM FEW170 BKN220 26/23 A2981 RMK AO2 SLP092 T02560228
KBWI 250254Z 15004KT 10SM SCT150 BKN220 25/23 A2980 RMK AO2 SLP090 T02500228 50002
KBWI 250354Z 13005KT 10SM SCT070 SCT150 BKN220 24/23 A2979 RMK AO2 SLP087 T02440228 $
KBWI 250454Z 00000KT 10SM FEW070 BKN140 BKN200 24/23 A2979 RMK AO2 SLP085 T02440233 403280167 $
KBWI 250554Z 00000KT 10SM FEW070 BKN140 BKN190 OVC250 24/23 A2977 RMK AO2 SLP079 OCNL LTGIC DSNT W-NW CB DSNT W-NW MOV E T02440228 10278 20244 58011 $
KBWI 250654Z 25010G23KT 10SM -TSRA FEW018 BKN044CB BKN060 OVC130 25/23 A2980 RMK AO2 RAB47 TSB49 SLP089 OCNL LTGIC SW-W TS SW-W MOV NE P0000 T02500228 $
KBWI 250754Z 00000KT 7SM -RA FEW037 SCT110 BKN180 OVC250 23/23 A2977 RMK AO2 TSE16 SLP078 P0006 T02330228 $
KBWI 250854Z 17003KT 10SM SCT013 BKN110 BKN150 OVC250 23/23 A2976 RMK AO2 RAE49 SLP077 P0000 60006 T02330228 58002 $
KBWI 250954Z 21003KT 6SM BR BKN017 BKN120 24/23 A2979 RMK AO2 SLP087 T02390228 $
KBWI 251054Z 23003KT 7SM FEW014 SCT055 BKN120 BKN200 24/22 A2980 RMK AO2 SLP090 T02390222
KBWI 251154Z 27006KT 10SM FEW014 FEW055 SCT120 BKN200 26/22 A2983 RMK AO2 SLP100 60006 70006 T02560222 10256 20233 51023
KBWI 251254Z 29005KT 10SM FEW017 SCT120 BKN200 BKN250 26/21 A2985 RMK AO2 SLP107 T02610211



Page loaded:  13:32 UTC  |   06:32 AM Pacific  |   07:32 AM Mountain  |   08:32 AM Central  |   09:32 AM Eastern

 

ADVISORIES

FORECASTS

FORECASTS

OBSERVATIONS

USER TOOLS

ABOUT US